• Join FlightAware (Why Join?)
  • Login
  • US Flag 
05:56AM EST


 

Airport Tracker/Info


-or-


 

Live Flight TrackerFlight Track Log ✈ AAY855 ✈ 16-Jul-2014 ✈ KSBN - KPIE

Flight Track Log - Related Links

Times and Time Zones

All times are in EDT time to prevent confusion due to time zone crossing. See the AAY855 flight status page for this flight to view local times or setup timezone preferences in your user account.

Time Position Orientation Groundspeed Altitude Reporting Facility
EDT Latitude Longitude Course Direction KTS MPH feet Rate Location/Type
08:04PM 41.5049 -86.1099 126° Southeast 349 402 9,900  Level FlightAware ADS-B (KMDW)
08:04PM 41.4826 -86.0697 126° Southeast 352 405 9,900 960 Level FlightAware ADS-B (KMDW)
08:05PM 41.4486 -86.0114 126° Southeast 327 376 11,000 2,160 Climbing Indianapolis Center
08:06PM 41.3872 -85.9044 127° Southeast 343 395 13,700 2,460 Climbing Indianapolis Center
08:07PM 41.3231 -85.7886 126° Southeast 368 423 16,100 2,100 Climbing Indianapolis Center
08:08PM 41.2572 -85.6706 127° Southeast 389 448 18,100 2,160 Climbing Indianapolis Center
08:09PM 41.1733 -85.5272 128° Southeast 407 468 20,600 2,340 Climbing Indianapolis Center
08:10PM 41.1036 -85.4053 127° Southeast 410 472 23,000 2,040 Climbing Indianapolis Center
08:11PM 41.0283 -85.2858 130° Southeast 417 480 24,900 1,500 Climbing Indianapolis Center
08:12PM 40.9331 -85.1903 143° Southeast 427 491 26,100 1,200 Climbing Indianapolis Center
08:13PM 40.8175 -85.1242 157° South 448 516 27,400 1,200 Climbing Indianapolis Center
08:14PM 40.6956 -85.0772 164° South 453 521 28,600 1,020 Climbing Indianapolis Center
08:15PM 40.5700 -85.0294 164° South 464 534 29,600 900 Climbing Indianapolis Center
08:16PM 40.4397 -84.9792 164° South 479 551 30,500 1,320 Climbing Indianapolis Center
08:17PM 40.2814 -84.9183 164° South 488 562 32,400 1,380 Climbing Indianapolis Center
08:18PM 40.1636 -84.8742 164° South 486 559 33,400 720 Climbing Indianapolis Center
08:23PM 39.4695 -84.6122 164° South 484 557 37,000 420 Climbing FlightAware ADS-B (KBRY)
08:26PM 39.1578 -84.4966 164° South 477 549 37,000  Level FlightAware ADS-B
08:26PM 39.0813 -84.4684 164° South 478 550 37,000  Level FlightAware ADS-B
08:27PM 39.0162 -84.4445 164° South 477 549 37,000  Level FlightAware ADS-B
08:28PM 38.9255 -84.4111 164° South 477 549 37,000  Level FlightAware ADS-B
08:28PM 38.8422 -84.3807 164° South 476 548 37,000 60 Level FlightAware ADS-B
08:29PM 38.7625 -84.3516 164° South 472 543 37,100  Climbing FlightAware ADS-B
08:29PM 38.6988 -84.3282 164° South 470 541 37,000 -180 Descending FlightAware ADS-B
08:29PM 38.6853 -84.3234 164° South 469 540 37,000  Level FlightAware ADS-B (KCVG)
08:30PM 38.6142 -84.3046 172° South 462 532 37,000  Level FlightAware ADS-B
08:30PM 38.6052 -84.3030 172° South 462 532 37,000  Level FlightAware ADS-B (KCVG)
08:31PM 38.5291 -84.2914 173° South 460 529 37,000  Level FlightAware ADS-B (KBRY)
08:32PM 38.4049 -84.2720 173° South 463 533 37,000  Level FlightAware ADS-B (KBRY)
08:32PM 38.3327 -84.2607 173° South 463 533 37,000  Level FlightAware ADS-B
08:33PM 38.3002 -84.2556 173° South 461 531 37,000  Level FlightAware ADS-B
08:36PM 37.9113 -84.1954 173° South 455 524 37,000  Level FlightAware ADS-B (KCVG)
08:37PM 37.7733 -84.1741 173° South 455 524 37,000  Level FlightAware ADS-B (KBRY)
08:38PM 37.6672 -84.1579 173° South 454 522 37,000  Level FlightAware ADS-B (KBRY)
08:38PM 37.5815 -84.1446 173° South 453 521 37,000  Level FlightAware ADS-B (KCVG)
08:39PM 37.5098 -84.1337 173° South 453 521 37,000  Level FlightAware ADS-B (KBRY)
08:40PM 37.4187 -84.1200 173° South 448 516 37,100  Climbing FlightAware ADS-B (KBRY)
08:41PM 37.2579 -84.0956 173° South 442 509 37,000 -60 Descending FlightAware ADS-B (KBRY)
08:42PM 37.1741 -84.0827 173° South 443 510 37,000  Level FlightAware ADS-B (KBRY)
08:43PM 37.0236 -84.0597 173° South 443 510 37,000  Level Indianapolis Center
08:44PM 36.8992 -84.0419 173° South 445 512 37,000  Level Indianapolis Center
08:45PM 36.7772 -84.0231 173° South 445 512 37,000  Level Indianapolis Center
08:46PM 36.6539 -84.0042 173° South 445 512 37,000  Level Indianapolis Center
08:47PM 36.5289 -83.9858 173° South 446 513 37,000  Level Indianapolis Center
08:48PM 36.4069 -83.9675 173° South 446 513 37,000  Level Indianapolis Center
08:49PM 36.2558 -83.9461 173° South 447 514 37,000  Level Indianapolis Center
08:50PM 36.1300 -83.9269 173° South 449 517 37,000  Level Indianapolis Center
08:51PM 36.0561 -83.9181 174° South 452 520 37,000  Level Atlanta Center
08:56PM 35.3830 -84.0207 191° South 440 506 37,000  Level FlightAware ADS-B (KDZJ)
08:57PM 35.3094 -84.0384 191° South 440 506 37,000  Level FlightAware ADS-B (KDZJ)
08:57PM 35.2191 -84.0601 191° South 440 506 37,000  Level FlightAware ADS-B (KDZJ)
08:58PM 35.1419 -84.0785 191° South 440 506 37,000  Level FlightAware ADS-B (KDZJ)
08:59PM 35.0583 -84.0986 191° South 440 506 37,000  Level FlightAware ADS-B (KDZJ)
08:59PM 34.9787 -84.1176 191° South 440 506 37,000  Level FlightAware ADS-B (KDZJ)
09:00PM 34.9026 -84.1357 191° South 441 507 37,000  Level FlightAware ADS-B (KDZJ)
09:01PM 34.8189 -84.1555 191° South 444 511 37,000  Level FlightAware ADS-B (KDZJ)
09:01PM 34.7496 -84.1720 191° South 440 506 37,000  Level FlightAware ADS-B (KDZJ)
09:02PM 34.6628 -84.1928 191° South 443 510 37,000  Level FlightAware ADS-B (KDZJ)
09:03PM 34.5752 -84.2135 191° South 443 510 37,000  Level FlightAware ADS-B (KDZJ)
09:03PM 34.4917 -84.2332 191° South 443 510 37,000  Level FlightAware ADS-B (KDZJ)
09:04PM 34.4088 -84.2528 191° South 445 512 37,000  Level FlightAware ADS-B (KDZJ)
09:05PM 34.3271 -84.2720 191° South 443 510 37,000  Level FlightAware ADS-B (KDZJ)
09:05PM 34.2444 -84.2913 191° South 441 507 37,000  Level FlightAware ADS-B (KDZJ)
09:06PM 34.1617 -84.3107 191° South 439 505 37,000  Level FlightAware ADS-B (KDZJ)
09:07PM 34.0817 -84.3294 191° South 439 505 37,000  Level FlightAware ADS-B (KDZJ)
09:07PM 33.9984 -84.3488 191° South 439 505 37,000  Level FlightAware ADS-B (KDZJ)
09:09PM 33.8628 -84.3842 191° South 448 516 37,000  Level Atlanta Center
09:10PM 33.7414 -84.4111 190° South 455 524 37,000  Level Atlanta Center
09:11PM 33.6058 -84.4353 188° South 452 520 37,000  Level Atlanta Center
09:12PM 33.4908 -84.4347 180° South 452 520 37,000  Level Atlanta Center
09:13PM 33.3636 -84.4317 179° South 457 526 37,000  Level Atlanta Center
09:14PM 33.2364 -84.4311 180° South 457 526 37,000  Level Atlanta Center
09:15PM 33.1089 -84.4256 178° South 457 526 37,000  Level Atlanta Center
09:16PM 32.9839 -84.4250 180° South 457 526 37,000  Level Atlanta Center
09:17PM 32.8586 -84.4222 179° South 457 526 37,000  Level Atlanta Center
09:18PM 32.7186 -84.4192 179° South 457 526 37,000  Level Atlanta Center
09:19PM 32.5914 -84.4161 179° South 457 526 37,000  Level Atlanta Center
09:20PM 32.4683 -84.4156 180° South 457 526 37,000  Level Atlanta Center
09:21PM 32.3408 -84.4100 178° South 457 526 37,000  Level Atlanta Center
09:22PM 32.2200 -84.4072 179° South 452 520 37,000  Level Atlanta Center
09:22PM 32.1219 -84.4061 179° South 450 518 37,000  Level Jacksonville Center
09:23PM 32.0008 -84.4042 179° South 439 505 37,000  Level Jacksonville Center
09:24PM 31.8778 -84.4019 179° South 439 505 37,000  Level Jacksonville Center
09:25PM 31.7525 -84.3975 178° South 439 505 37,000  Level Jacksonville Center
09:31PM 31.0997 -84.2654 166° South 431 496 37,000 -60 Level FlightAware ADS-B (KTLH)
09:33PM 30.8596 -84.1949 166° South 435 501 36,600 -420 Descending FlightAware ADS-B (KTLH)
09:34PM 30.7812 -84.1721 166° South 441 507 35,900 -960 Descending FlightAware ADS-B (KTLH)
09:34PM 30.7222 -84.1550 166° South 443 510 35,500 -900 Descending FlightAware ADS-B (KTLH)
09:35PM 30.6582 -84.1361 165° South 446 513 35,000 -1,020 Descending FlightAware ADS-B (KTLH)
09:35PM 30.5957 -84.1096 159° South 451 519 34,500 -1,020 Descending FlightAware ADS-B (KTLH)
09:36PM 30.5380 -84.0839 159° South 452 520 34,000 -1,020 Descending FlightAware ADS-B (KTLH)
09:37PM 30.4417 -84.0413 159° South 458 527 33,200 -1,020 Descending FlightAware ADS-B (KTLH)
09:37PM 30.3606 -84.0055 159° South 464 534 32,500 -900 Descending FlightAware ADS-B (KTLH)
09:38PM 30.3005 -83.9789 159° South 467 537 32,200 -600 Descending FlightAware ADS-B (KTLH)
09:38PM 30.2188 -83.9429 159° South 468 539 31,800 -540 Descending FlightAware ADS-B (KTLH)
09:39PM 30.0914 -83.8914 159° South 474 545 31,300 -540 Descending Jacksonville Center
09:40PM 29.9686 -83.8347 158° South 474 545 30,800 -540 Descending Jacksonville Center
09:41PM 29.8481 -83.7833 160° South 474 545 30,300 -600 Descending Jacksonville Center
09:42PM 29.7208 -83.7439 165° South 474 545 29,600 -720 Descending Jacksonville Center
09:43PM 29.5894 -83.7094 167° South 474 545 28,900 -780 Descending Jacksonville Center
09:44PM 29.4603 -83.6750 167° South 474 545 28,100 -780 Descending Jacksonville Center
09:45PM 29.3269 -83.6428 168° South 480 552 27,400 -780 Descending Jacksonville Center
09:46PM 29.1997 -83.5992 163° South 480 552 26,600 -840 Descending Jacksonville Center
09:47PM 29.0769 -83.5531 162° South 475 547 25,800 -1,200 Descending Jacksonville Center
09:48PM 28.9689 -83.4692 146° Southeast 461 531 24,300 -1,620 Descending Jacksonville Center
09:49PM 28.8647 -83.3786 143° Southeast 461 531 22,600 -2,820 Descending Jacksonville Center
09:50PM 28.7628 -83.2928 144° Southeast 466 536 18,700 -3,360 Descending Jacksonville Center
09:51PM 28.6650 -83.2097 143° Southeast 459 528 15,900 -2,100 Descending Jacksonville Center
09:52PM 28.5711 -83.1289 143° Southeast 444 511 14,500 -1,200 Descending Jacksonville Center
09:53PM 28.5000 -83.0667 142° Southeast 382 440 13,900 -900 Descending Tampa TRACON
09:54PM 28.4333 -82.9833 132° Southeast 355 409 13,000 -840 Descending Tampa TRACON
09:55PM 28.3833 -82.9000 124° Southeast 317 365 12,300 -1,200 Descending Tampa TRACON
09:56PM 28.3167 -82.8333 139° Southeast 324 373 10,600 -2,160 Descending Tampa TRACON
09:57PM 28.2667 -82.7500 124° Southeast 315 362 8,000 -2,580 Descending Tampa TRACON
09:58PM 28.2000 -82.6833 139° Southeast 305 351 5,300 -2,220 Descending Tampa TRACON
09:59PM 28.1167 -82.7000 190° South 260 299 3,400 -1,560 Descending Tampa TRACON
10:00PM 28.0667 -82.7167 196° South 218 251 2,400 -900 Descending Tampa TRACON
10:01PM 28.0167 -82.7000 164° South 177 204 1,800 -840 Descending Tampa TRACON
10:02PM 27.9667 -82.7000 180° South 136 157 800 -780 Descending Tampa TRACON
10:03PM 27.9333 -82.7000 180° South 128 147 200 -600 Descending Tampa TRACON